sensor_id;sensor_type;location;lat;lon;timestamp;P1;durP1;ratioP1;P2;durP2;ratioP2
18411;SDS011;27097;51.738;19.472;2023-03-21T00:02:07;14.45;;;8.50;;
18411;SDS011;27097;51.738;19.472;2023-03-21T00:04:37;17.40;;;8.70;;
18411;SDS011;27097;51.738;19.472;2023-03-21T00:07:04;13.35;;;8.80;;
18411;SDS011;27097;51.738;19.472;2023-03-21T00:09:31;13.30;;;8.90;;
18411;SDS011;27097;51.738;19.472;2023-03-21T00:11:59;20.98;;;8.65;;
18411;SDS011;27097;51.738;19.472;2023-03-21T00:14:26;15.75;;;8.75;;
18411;SDS011;27097;51.738;19.472;2023-03-21T00:16:56;11.90;;;8.15;;
18411;SDS011;27097;51.738;19.472;2023-03-21T00:19:23;13.20;;;8.63;;
18411;SDS011;27097;51.738;19.472;2023-03-21T00:21:50;15.65;;;8.65;;
18411;SDS011;27097;51.738;19.472;2023-03-21T00:24:19;15.65;;;9.20;;
18411;SDS011;27097;51.738;19.472;2023-03-21T00:26:47;11.60;;;8.00;;
18411;SDS011;27097;51.738;19.472;2023-03-21T00:29:15;13.38;;;8.57;;
18411;SDS011;27097;51.738;19.472;2023-03-21T00:31:42;13.32;;;7.82;;
18411;SDS011;27097;51.738;19.472;2023-03-21T00:34:09;14.35;;;8.80;;
18411;SDS011;27097;51.738;19.472;2023-03-21T00:36:38;15.27;;;8.52;;
18411;SDS011;27097;51.738;19.472;2023-03-21T00:39:04;13.95;;;8.50;;
18411;SDS011;27097;51.738;19.472;2023-03-21T00:41:31;13.07;;;8.23;;
18411;SDS011;27097;51.738;19.472;2023-03-21T00:43:59;13.57;;;8.35;;
18411;SDS011;27097;51.738;19.472;2023-03-21T00:46:30;15.18;;;9.05;;
18411;SDS011;27097;51.738;19.472;2023-03-21T00:48:59;16.55;;;9.20;;
18411;SDS011;27097;51.738;19.472;2023-03-21T00:51:29;14.43;;;9.00;;
18411;SDS011;27097;51.738;19.472;2023-03-21T00:53:57;18.05;;;10.25;;
18411;SDS011;27097;51.738;19.472;2023-03-21T00:56:24;14.20;;;8.80;;
18411;SDS011;27097;51.738;19.472;2023-03-21T00:58:51;16.88;;;9.23;;
18411;SDS011;27097;51.738;19.472;2023-03-21T01:01:18;15.43;;;9.00;;
18411;SDS011;27097;51.738;19.472;2023-03-21T01:03:46;16.75;;;9.10;;
18411;SDS011;27097;51.738;19.472;2023-03-21T01:06:15;16.33;;;9.23;;
18411;SDS011;27097;51.738;19.472;2023-03-21T01:08:44;24.38;;;9.95;;
18411;SDS011;27097;51.738;19.472;2023-03-21T01:11:13;16.13;;;8.15;;
18411;SDS011;27097;51.738;19.472;2023-03-21T01:13:41;14.05;;;7.97;;
18411;SDS011;27097;51.738;19.472;2023-03-21T01:16:08;20.67;;;8.88;;
18411;SDS011;27097;51.738;19.472;2023-03-21T01:18:36;19.23;;;8.57;;
18411;SDS011;27097;51.738;19.472;2023-03-21T01:21:08;15.73;;;8.38;;
18411;SDS011;27097;51.738;19.472;2023-03-21T01:23:37;17.13;;;8.20;;
18411;SDS011;27097;51.738;19.472;2023-03-21T01:26:06;18.23;;;8.25;;
18411;SDS011;27097;51.738;19.472;2023-03-21T01:28:34;15.35;;;7.97;;
18411;SDS011;27097;51.738;19.472;2023-03-21T01:31:01;14.68;;;8.00;;
18411;SDS011;27097;51.738;19.472;2023-03-21T01:33:30;14.48;;;7.72;;
18411;SDS011;27097;51.738;19.472;2023-03-21T01:35:58;17.48;;;7.32;;
18411;SDS011;27097;51.738;19.472;2023-03-21T01:38:26;12.90;;;7.53;;
18411;SDS011;27097;51.738;19.472;2023-03-21T01:40:53;13.50;;;7.80;;
18411;SDS011;27097;51.738;19.472;2023-03-21T01:43:22;13.35;;;7.00;;
18411;SDS011;27097;51.738;19.472;2023-03-21T01:46:16;15.85;;;6.80;;
18411;SDS011;27097;51.738;19.472;2023-03-21T01:48:49;12.27;;;7.03;;
18411;SDS011;27097;51.738;19.472;2023-03-21T01:51:19;12.43;;;7.18;;
18411;SDS011;27097;51.738;19.472;2023-03-21T01:53:48;12.27;;;6.60;;
18411;SDS011;27097;51.738;19.472;2023-03-21T01:56:18;12.50;;;6.68;;
18411;SDS011;27097;51.738;19.472;2023-03-21T01:58:50;11.38;;;6.72;;
18411;SDS011;27097;51.738;19.472;2023-03-21T02:01:20;12.02;;;6.88;;
18411;SDS011;27097;51.738;19.472;2023-03-21T02:03:48;12.90;;;6.93;;
18411;SDS011;27097;51.738;19.472;2023-03-21T02:06:18;13.43;;;6.80;;
18411;SDS011;27097;51.738;19.472;2023-03-21T02:08:55;10.05;;;6.72;;
18411;SDS011;27097;51.738;19.472;2023-03-21T02:11:28;12.73;;;6.32;;
18411;SDS011;27097;51.738;19.472;2023-03-21T02:13:57;14.43;;;6.70;;
18411;SDS011;27097;51.738;19.472;2023-03-21T02:16:27;13.60;;;6.82;;
18411;SDS011;27097;51.738;19.472;2023-03-21T02:19:04;14.52;;;6.60;;
18411;SDS011;27097;51.738;19.472;2023-03-21T02:21:59;10.93;;;6.38;;
18411;SDS011;27097;51.738;19.472;2023-03-21T02:24:50;12.52;;;6.53;;
18411;SDS011;27097;51.738;19.472;2023-03-21T02:27:35;11.55;;;6.38;;
18411;SDS011;27097;51.738;19.472;2023-03-21T02:30:18;11.90;;;6.70;;
18411;SDS011;27097;51.738;19.472;2023-03-21T02:33:22;10.88;;;6.75;;
18411;SDS011;27097;51.738;19.472;2023-03-21T02:36:14;9.93;;;5.90;;
18411;SDS011;27097;51.738;19.472;2023-03-21T02:38:52;11.77;;;6.60;;
18411;SDS011;27097;51.738;19.472;2023-03-21T02:41:24;11.57;;;6.43;;
18411;SDS011;27097;51.738;19.472;2023-03-21T02:43:56;13.23;;;6.60;;
18411;SDS011;27097;51.738;19.472;2023-03-21T02:46:27;12.60;;;6.55;;
18411;SDS011;27097;51.738;19.472;2023-03-21T02:48:59;10.52;;;5.78;;
18411;SDS011;27097;51.738;19.472;2023-03-21T02:51:33;10.55;;;6.07;;
18411;SDS011;27097;51.738;19.472;2023-03-21T02:54:04;15.55;;;7.20;;
18411;SDS011;27097;51.738;19.472;2023-03-21T02:56:34;9.93;;;6.03;;
18411;SDS011;27097;51.738;19.472;2023-03-21T02:59:02;12.00;;;6.30;;
18411;SDS011;27097;51.738;19.472;2023-03-21T03:01:30;10.18;;;5.95;;
18411;SDS011;27097;51.738;19.472;2023-03-21T03:03:57;14.30;;;6.30;;
18411;SDS011;27097;51.738;19.472;2023-03-21T03:06:25;12.32;;;6.30;;
18411;SDS011;27097;51.738;19.472;2023-03-21T03:09:11;11.13;;;6.07;;
18411;SDS011;27097;51.738;19.472;2023-03-21T03:11:50;10.43;;;6.00;;
18411;SDS011;27097;51.738;19.472;2023-03-21T03:14:29;13.45;;;6.43;;
18411;SDS011;27097;51.738;19.472;2023-03-21T03:17:10;12.10;;;5.97;;
18411;SDS011;27097;51.738;19.472;2023-03-21T03:19:48;12.15;;;6.07;;
18411;SDS011;27097;51.738;19.472;2023-03-21T03:22:25;9.48;;;5.82;;
18411;SDS011;27097;51.738;19.472;2023-03-21T03:25:00;10.65;;;6.00;;
18411;SDS011;27097;51.738;19.472;2023-03-21T03:27:31;9.68;;;6.00;;
18411;SDS011;27097;51.738;19.472;2023-03-21T03:30:02;9.25;;;5.93;;
18411;SDS011;27097;51.738;19.472;2023-03-21T03:32:33;10.05;;;5.55;;
18411;SDS011;27097;51.738;19.472;2023-03-21T03:35:09;10.32;;;5.80;;
18411;SDS011;27097;51.738;19.472;2023-03-21T03:37:39;11.20;;;5.75;;
18411;SDS011;27097;51.738;19.472;2023-03-21T03:40:09;9.20;;;6.00;;
18411;SDS011;27097;51.738;19.472;2023-03-21T03:42:39;11.93;;;6.10;;
18411;SDS011;27097;51.738;19.472;2023-03-21T03:45:11;11.82;;;5.88;;
18411;SDS011;27097;51.738;19.472;2023-03-21T03:47:39;9.60;;;5.93;;
18411;SDS011;27097;51.738;19.472;2023-03-21T03:50:11;10.88;;;5.93;;
18411;SDS011;27097;51.738;19.472;2023-03-21T03:52:43;9.63;;;5.78;;
18411;SDS011;27097;51.738;19.472;2023-03-21T03:55:15;8.32;;;5.40;;
18411;SDS011;27097;51.738;19.472;2023-03-21T03:57:45;9.25;;;5.60;;
18411;SDS011;27097;51.738;19.472;2023-03-21T04:00:13;10.48;;;5.60;;
18411;SDS011;27097;51.738;19.472;2023-03-21T04:02:41;10.35;;;5.45;;
18411;SDS011;27097;51.738;19.472;2023-03-21T04:05:09;8.65;;;5.30;;
18411;SDS011;27097;51.738;19.472;2023-03-21T04:07:36;11.27;;;5.93;;
18411;SDS011;27097;51.738;19.472;2023-03-21T04:10:03;9.85;;;5.63;;
18411;SDS011;27097;51.738;19.472;2023-03-21T04:12:32;7.82;;;5.32;;
18411;SDS011;27097;51.738;19.472;2023-03-21T04:14:59;9.10;;;5.60;;
18411;SDS011;27097;51.738;19.472;2023-03-21T04:17:25;10.52;;;5.85;;
18411;SDS011;27097;51.738;19.472;2023-03-21T04:19:52;8.90;;;5.40;;
18411;SDS011;27097;51.738;19.472;2023-03-21T04:22:19;8.50;;;5.55;;
18411;SDS011;27097;51.738;19.472;2023-03-21T04:24:46;9.18;;;5.38;;
18411;SDS011;27097;51.738;19.472;2023-03-21T04:27:13;7.85;;;5.00;;
18411;SDS011;27097;51.738;19.472;2023-03-21T04:29:41;8.35;;;5.05;;
18411;SDS011;27097;51.738;19.472;2023-03-21T04:32:08;8.25;;;5.45;;
18411;SDS011;27097;51.738;19.472;2023-03-21T04:34:40;9.13;;;5.10;;
18411;SDS011;27097;51.738;19.472;2023-03-21T04:37:07;9.32;;;5.28;;
18411;SDS011;27097;51.738;19.472;2023-03-21T04:39:36;12.27;;;5.70;;
18411;SDS011;27097;51.738;19.472;2023-03-21T04:42:03;11.80;;;5.70;;
18411;SDS011;27097;51.738;19.472;2023-03-21T04:44:30;9.27;;;5.35;;
18411;SDS011;27097;51.738;19.472;2023-03-21T04:46:58;9.27;;;5.25;;
18411;SDS011;27097;51.738;19.472;2023-03-21T04:49:25;8.63;;;5.03;;
18411;SDS011;27097;51.738;19.472;2023-03-21T04:51:52;11.95;;;5.63;;
18411;SDS011;27097;51.738;19.472;2023-03-21T04:54:19;8.07;;;5.25;;
18411;SDS011;27097;51.738;19.472;2023-03-21T04:56:46;7.20;;;5.22;;
18411;SDS011;27097;51.738;19.472;2023-03-21T04:59:14;8.77;;;5.65;;
18411;SDS011;27097;51.738;19.472;2023-03-21T05:01:41;7.47;;;5.00;;
18411;SDS011;27097;51.738;19.472;2023-03-21T05:04:10;8.13;;;4.80;;
18411;SDS011;27097;51.738;19.472;2023-03-21T05:06:39;8.95;;;5.22;;
18411;SDS011;27097;51.738;19.472;2023-03-21T05:09:06;8.25;;;5.25;;
18411;SDS011;27097;51.738;19.472;2023-03-21T05:11:33;10.15;;;5.55;;
18411;SDS011;27097;51.738;19.472;2023-03-21T05:14:02;8.82;;;5.22;;
18411;SDS011;27097;51.738;19.472;2023-03-21T05:16:30;9.00;;;5.80;;
18411;SDS011;27097;51.738;19.472;2023-03-21T05:18:59;10.80;;;5.75;;
18411;SDS011;27097;51.738;19.472;2023-03-21T05:21:29;8.32;;;5.28;;
18411;SDS011;27097;51.738;19.472;2023-03-21T05:23:58;11.93;;;5.28;;
18411;SDS011;27097;51.738;19.472;2023-03-21T05:26:28;9.07;;;5.53;;
18411;SDS011;27097;51.738;19.472;2023-03-21T05:28:55;10.68;;;5.30;;
18411;SDS011;27097;51.738;19.472;2023-03-21T05:31:21;8.52;;;5.10;;
18411;SDS011;27097;51.738;19.472;2023-03-21T05:33:48;10.07;;;5.15;;
18411;SDS011;27097;51.738;19.472;2023-03-21T05:36:15;9.82;;;5.65;;
18411;SDS011;27097;51.738;19.472;2023-03-21T05:38:43;10.90;;;5.03;;
18411;SDS011;27097;51.738;19.472;2023-03-21T05:41:10;10.23;;;5.15;;
18411;SDS011;27097;51.738;19.472;2023-03-21T05:43:37;12.07;;;5.40;;
18411;SDS011;27097;51.738;19.472;2023-03-21T05:46:04;9.23;;;5.20;;
18411;SDS011;27097;51.738;19.472;2023-03-21T05:48:32;8.35;;;5.20;;
18411;SDS011;27097;51.738;19.472;2023-03-21T05:50:59;8.77;;;5.82;;
18411;SDS011;27097;51.738;19.472;2023-03-21T05:53:26;8.98;;;5.90;;
18411;SDS011;27097;51.738;19.472;2023-03-21T05:55:54;8.75;;;5.70;;
18411;SDS011;27097;51.738;19.472;2023-03-21T05:58:21;9.10;;;5.78;;
18411;SDS011;27097;51.738;19.472;2023-03-21T06:00:48;8.43;;;5.20;;
18411;SDS011;27097;51.738;19.472;2023-03-21T06:03:15;10.88;;;5.07;;
18411;SDS011;27097;51.738;19.472;2023-03-21T06:05:42;11.13;;;5.88;;
18411;SDS011;27097;51.738;19.472;2023-03-21T06:08:09;8.77;;;5.38;;
18411;SDS011;27097;51.738;19.472;2023-03-21T06:10:42;8.77;;;5.63;;
18411;SDS011;27097;51.738;19.472;2023-03-21T06:13:12;9.57;;;5.85;;
18411;SDS011;27097;51.738;19.472;2023-03-21T06:15:42;10.10;;;5.22;;
18411;SDS011;27097;51.738;19.472;2023-03-21T06:18:09;10.90;;;5.57;;
18411;SDS011;27097;51.738;19.472;2023-03-21T06:20:36;10.65;;;5.97;;
18411;SDS011;27097;51.738;19.472;2023-03-21T06:23:03;9.25;;;6.10;;
18411;SDS011;27097;51.738;19.472;2023-03-21T06:25:30;9.57;;;5.55;;
18411;SDS011;27097;51.738;19.472;2023-03-21T06:28:14;11.48;;;6.55;;
18411;SDS011;27097;51.738;19.472;2023-03-21T06:30:49;9.80;;;6.00;;
18411;SDS011;27097;51.738;19.472;2023-03-21T06:33:17;14.20;;;6.20;;
18411;SDS011;27097;51.738;19.472;2023-03-21T06:35:49;11.70;;;5.93;;
18411;SDS011;27097;51.738;19.472;2023-03-21T06:38:17;12.90;;;8.35;;
18411;SDS011;27097;51.738;19.472;2023-03-21T06:40:44;17.65;;;7.45;;
18411;SDS011;27097;51.738;19.472;2023-03-21T06:43:14;14.30;;;7.47;;
18411;SDS011;27097;51.738;19.472;2023-03-21T06:45:43;15.60;;;7.60;;
18411;SDS011;27097;51.738;19.472;2023-03-21T06:48:10;12.02;;;7.47;;
18411;SDS011;27097;51.738;19.472;2023-03-21T06:50:37;17.55;;;9.27;;
18411;SDS011;27097;51.738;19.472;2023-03-21T06:53:04;22.58;;;9.05;;
18411;SDS011;27097;51.738;19.472;2023-03-21T06:55:31;18.23;;;9.57;;
18411;SDS011;27097;51.738;19.472;2023-03-21T06:57:58;17.23;;;9.23;;
18411;SDS011;27097;51.738;19.472;2023-03-21T07:00:25;23.25;;;9.05;;
18411;SDS011;27097;51.738;19.472;2023-03-21T07:02:54;21.73;;;9.95;;
18411;SDS011;27097;51.738;19.472;2023-03-21T07:05:22;32.58;;;12.43;;
18411;SDS011;27097;51.738;19.472;2023-03-21T07:07:49;33.08;;;12.68;;
18411;SDS011;27097;51.738;19.472;2023-03-21T07:10:16;27.17;;;11.95;;
18411;SDS011;27097;51.738;19.472;2023-03-21T07:12:43;28.50;;;12.95;;
18411;SDS011;27097;51.738;19.472;2023-03-21T07:15:10;29.05;;;13.63;;
18411;SDS011;27097;51.738;19.472;2023-03-21T07:17:37;29.48;;;13.13;;
18411;SDS011;27097;51.738;19.472;2023-03-21T07:20:08;28.48;;;12.40;;
18411;SDS011;27097;51.738;19.472;2023-03-21T07:22:36;28.42;;;12.55;;
18411;SDS011;27097;51.738;19.472;2023-03-21T07:25:06;23.23;;;12.35;;
18411;SDS011;27097;51.738;19.472;2023-03-21T07:27:34;27.15;;;12.63;;
18411;SDS011;27097;51.738;19.472;2023-03-21T07:30:01;21.83;;;12.27;;
18411;SDS011;27097;51.738;19.472;2023-03-21T07:32:30;22.25;;;13.30;;
18411;SDS011;27097;51.738;19.472;2023-03-21T07:34:58;26.73;;;12.45;;
18411;SDS011;27097;51.738;19.472;2023-03-21T07:37:26;20.20;;;12.32;;
18411;SDS011;27097;51.738;19.472;2023-03-21T07:39:53;22.02;;;12.98;;
18411;SDS011;27097;51.738;19.472;2023-03-21T07:42:20;21.83;;;12.50;;
18411;SDS011;27097;51.738;19.472;2023-03-21T07:44:47;19.50;;;12.43;;
18411;SDS011;27097;51.738;19.472;2023-03-21T07:47:15;20.20;;;12.20;;
18411;SDS011;27097;51.738;19.472;2023-03-21T07:49:43;19.42;;;11.63;;
18411;SDS011;27097;51.738;19.472;2023-03-21T07:52:10;20.40;;;11.25;;
18411;SDS011;27097;51.738;19.472;2023-03-21T07:54:39;19.95;;;11.75;;
18411;SDS011;27097;51.738;19.472;2023-03-21T07:57:06;18.73;;;11.38;;
18411;SDS011;27097;51.738;19.472;2023-03-21T07:59:33;20.98;;;10.43;;
18411;SDS011;27097;51.738;19.472;2023-03-21T08:02:00;18.17;;;10.73;;
18411;SDS011;27097;51.738;19.472;2023-03-21T08:04:27;17.38;;;10.25;;
18411;SDS011;27097;51.738;19.472;2023-03-21T08:06:53;18.52;;;9.73;;
18411;SDS011;27097;51.738;19.472;2023-03-21T08:09:21;15.27;;;9.15;;
18411;SDS011;27097;51.738;19.472;2023-03-21T08:11:49;17.63;;;8.70;;
18411;SDS011;27097;51.738;19.472;2023-03-21T08:14:16;11.80;;;7.18;;
18411;SDS011;27097;51.738;19.472;2023-03-21T08:16:43;13.13;;;7.30;;
18411;SDS011;27097;51.738;19.472;2023-03-21T08:19:10;12.20;;;6.75;;
18411;SDS011;27097;51.738;19.472;2023-03-21T08:21:37;9.18;;;6.40;;
18411;SDS011;27097;51.738;19.472;2023-03-21T08:24:04;15.70;;;6.38;;
18411;SDS011;27097;51.738;19.472;2023-03-21T08:26:32;11.55;;;6.80;;
18411;SDS011;27097;51.738;19.472;2023-03-21T08:29:00;23.13;;;6.70;;
18411;SDS011;27097;51.738;19.472;2023-03-21T08:31:28;11.35;;;6.43;;
18411;SDS011;27097;51.738;19.472;2023-03-21T08:33:55;13.25;;;6.40;;
18411;SDS011;27097;51.738;19.472;2023-03-21T08:36:22;16.80;;;5.88;;
18411;SDS011;27097;51.738;19.472;2023-03-21T08:38:49;11.90;;;6.32;;
18411;SDS011;27097;51.738;19.472;2023-03-21T08:41:20;13.95;;;6.30;;
18411;SDS011;27097;51.738;19.472;2023-03-21T08:43:49;15.48;;;5.47;;
18411;SDS011;27097;51.738;19.472;2023-03-21T08:46:18;9.80;;;5.45;;
18411;SDS011;27097;51.738;19.472;2023-03-21T08:48:45;13.95;;;5.47;;
18411;SDS011;27097;51.738;19.472;2023-03-21T08:51:11;12.40;;;5.55;;
18411;SDS011;27097;51.738;19.472;2023-03-21T08:53:38;12.23;;;5.13;;
18411;SDS011;27097;51.738;19.472;2023-03-21T08:56:06;10.20;;;5.53;;
18411;SDS011;27097;51.738;19.472;2023-03-21T08:58:34;10.63;;;5.68;;
18411;SDS011;27097;51.738;19.472;2023-03-21T09:01:01;17.70;;;6.25;;
18411;SDS011;27097;51.738;19.472;2023-03-21T09:03:30;12.48;;;6.10;;
18411;SDS011;27097;51.738;19.472;2023-03-21T09:05:56;12.65;;;5.25;;
18411;SDS011;27097;51.738;19.472;2023-03-21T09:08:24;21.92;;;6.00;;
18411;SDS011;27097;51.738;19.472;2023-03-21T09:10:51;14.30;;;5.55;;
18411;SDS011;27097;51.738;19.472;2023-03-21T09:13:18;16.58;;;5.43;;
18411;SDS011;27097;51.738;19.472;2023-03-21T09:15:46;14.85;;;5.68;;
18411;SDS011;27097;51.738;19.472;2023-03-21T09:18:13;13.27;;;4.85;;
18411;SDS011;27097;51.738;19.472;2023-03-21T09:20:44;11.95;;;4.90;;
18411;SDS011;27097;51.738;19.472;2023-03-21T09:23:12;13.70;;;5.22;;
18411;SDS011;27097;51.738;19.472;2023-03-21T09:25:39;17.27;;;5.32;;
18411;SDS011;27097;51.738;19.472;2023-03-21T09:28:07;11.82;;;5.03;;
18411;SDS011;27097;51.738;19.472;2023-03-21T09:30:34;11.98;;;5.50;;
18411;SDS011;27097;51.738;19.472;2023-03-21T09:33:03;19.27;;;5.82;;
18411;SDS011;27097;51.738;19.472;2023-03-21T09:35:37;13.40;;;5.00;;
18411;SDS011;27097;51.738;19.472;2023-03-21T09:38:05;17.10;;;6.43;;
18411;SDS011;27097;51.738;19.472;2023-03-21T09:40:44;11.13;;;5.70;;
18411;SDS011;27097;51.738;19.472;2023-03-21T09:43:22;11.15;;;5.32;;
18411;SDS011;27097;51.738;19.472;2023-03-21T09:46:00;10.15;;;5.85;;
18411;SDS011;27097;51.738;19.472;2023-03-21T09:48:34;13.15;;;5.38;;
18411;SDS011;27097;51.738;19.472;2023-03-21T09:51:07;9.82;;;4.95;;
18411;SDS011;27097;51.738;19.472;2023-03-21T09:53:41;12.75;;;5.28;;
18411;SDS011;27097;51.738;19.472;2023-03-21T09:56:12;15.65;;;5.72;;
18411;SDS011;27097;51.738;19.472;2023-03-21T09:58:42;10.95;;;5.40;;
18411;SDS011;27097;51.738;19.472;2023-03-21T10:01:11;15.02;;;5.22;;
18411;SDS011;27097;51.738;19.472;2023-03-21T10:03:46;11.48;;;5.05;;
18411;SDS011;27097;51.738;19.472;2023-03-21T10:06:14;17.20;;;5.43;;
18411;SDS011;27097;51.738;19.472;2023-03-21T10:08:44;15.18;;;5.85;;
18411;SDS011;27097;51.738;19.472;2023-03-21T10:11:13;8.63;;;5.20;;
18411;SDS011;27097;51.738;19.472;2023-03-21T10:13:47;10.82;;;5.07;;
18411;SDS011;27097;51.738;19.472;2023-03-21T10:16:18;12.57;;;5.13;;
18411;SDS011;27097;51.738;19.472;2023-03-21T10:18:50;8.32;;;4.82;;
18411;SDS011;27097;51.738;19.472;2023-03-21T10:21:20;14.57;;;5.47;;
18411;SDS011;27097;51.738;19.472;2023-03-21T10:23:50;10.63;;;5.20;;
18411;SDS011;27097;51.738;19.472;2023-03-21T10:26:18;13.55;;;5.18;;
18411;SDS011;27097;51.738;19.472;2023-03-21T10:28:47;9.63;;;5.30;;
18411;SDS011;27097;51.738;19.472;2023-03-21T10:31:15;9.25;;;4.88;;
18411;SDS011;27097;51.738;19.472;2023-03-21T10:33:45;8.98;;;5.38;;
18411;SDS011;27097;51.738;19.472;2023-03-21T10:36:15;8.75;;;4.60;;
18411;SDS011;27097;51.738;19.472;2023-03-21T10:38:47;8.40;;;4.47;;
18411;SDS011;27097;51.738;19.472;2023-03-21T10:41:17;15.15;;;4.80;;
18411;SDS011;27097;51.738;19.472;2023-03-21T10:43:44;9.63;;;5.10;;
18411;SDS011;27097;51.738;19.472;2023-03-21T10:46:15;12.48;;;4.85;;
18411;SDS011;27097;51.738;19.472;2023-03-21T10:48:46;11.75;;;4.90;;
18411;SDS011;27097;51.738;19.472;2023-03-21T10:51:18;13.95;;;4.95;;
18411;SDS011;27097;51.738;19.472;2023-03-21T10:53:48;8.73;;;5.10;;
18411;SDS011;27097;51.738;19.472;2023-03-21T10:56:19;9.50;;;5.05;;
18411;SDS011;27097;51.738;19.472;2023-03-21T10:58:50;12.32;;;6.28;;
18411;SDS011;27097;51.738;19.472;2023-03-21T11:01:23;10.75;;;5.32;;
18411;SDS011;27097;51.738;19.472;2023-03-21T11:03:54;11.25;;;5.10;;
18411;SDS011;27097;51.738;19.472;2023-03-21T11:06:28;10.27;;;5.28;;
18411;SDS011;27097;51.738;19.472;2023-03-21T11:08:59;6.93;;;5.20;;
18411;SDS011;27097;51.738;19.472;2023-03-21T11:11:34;10.48;;;5.45;;
18411;SDS011;27097;51.738;19.472;2023-03-21T11:14:04;9.98;;;5.05;;
18411;SDS011;27097;51.738;19.472;2023-03-21T11:16:36;11.63;;;5.32;;
18411;SDS011;27097;51.738;19.472;2023-03-21T11:19:11;8.65;;;4.75;;
18411;SDS011;27097;51.738;19.472;2023-03-21T11:21:40;10.55;;;4.97;;
18411;SDS011;27097;51.738;19.472;2023-03-21T11:24:10;11.50;;;4.85;;
18411;SDS011;27097;51.738;19.472;2023-03-21T11:26:43;7.93;;;4.90;;
18411;SDS011;27097;51.738;19.472;2023-03-21T11:29:21;6.85;;;4.70;;
18411;SDS011;27097;51.738;19.472;2023-03-21T11:31:52;6.50;;;4.68;;
18411;SDS011;27097;51.738;19.472;2023-03-21T11:34:26;8.07;;;4.70;;
18411;SDS011;27097;51.738;19.472;2023-03-21T11:36:58;8.32;;;4.38;;
18411;SDS011;27097;51.738;19.472;2023-03-21T11:39:28;5.22;;;4.13;;
18411;SDS011;27097;51.738;19.472;2023-03-21T11:41:59;12.02;;;4.60;;
18411;SDS011;27097;51.738;19.472;2023-03-21T11:44:27;7.63;;;4.40;;
18411;SDS011;27097;51.738;19.472;2023-03-21T11:46:55;6.43;;;3.80;;
18411;SDS011;27097;51.738;19.472;2023-03-21T11:49:23;6.07;;;4.38;;
18411;SDS011;27097;51.738;19.472;2023-03-21T11:51:53;5.88;;;4.32;;
18411;SDS011;27097;51.738;19.472;2023-03-21T11:54:30;6.20;;;4.53;;
18411;SDS011;27097;51.738;19.472;2023-03-21T11:57:21;6.00;;;4.10;;
18411;SDS011;27097;51.738;19.472;2023-03-21T11:59:58;6.97;;;4.63;;
18411;SDS011;27097;51.738;19.472;2023-03-21T12:05:42;8.25;;;4.15;;
18411;SDS011;27097;51.738;19.472;2023-03-21T12:08:19;7.57;;;4.30;;
18411;SDS011;27097;51.738;19.472;2023-03-21T12:10:56;8.73;;;4.65;;
18411;SDS011;27097;51.738;19.472;2023-03-21T12:13:35;10.80;;;4.63;;
18411;SDS011;27097;51.738;19.472;2023-03-21T12:16:17;11.02;;;5.32;;
18411;SDS011;27097;51.738;19.472;2023-03-21T12:18:59;9.70;;;4.60;;
18411;SDS011;27097;51.738;19.472;2023-03-21T12:21:35;14.02;;;4.40;;
18411;SDS011;27097;51.738;19.472;2023-03-21T12:24:11;10.98;;;4.43;;
18411;SDS011;27097;51.738;19.472;2023-03-21T12:26:42;9.95;;;6.13;;
18411;SDS011;27097;51.738;19.472;2023-03-21T12:29:23;9.32;;;6.25;;
18411;SDS011;27097;51.738;19.472;2023-03-21T12:32:00;11.10;;;6.72;;
18411;SDS011;27097;51.738;19.472;2023-03-21T12:34:46;12.18;;;7.10;;
18411;SDS011;27097;51.738;19.472;2023-03-21T12:37:45;15.40;;;8.07;;
18411;SDS011;27097;51.738;19.472;2023-03-21T12:40:28;13.60;;;7.80;;
18411;SDS011;27097;51.738;19.472;2023-03-21T12:43:17;10.75;;;6.20;;
18411;SDS011;27097;51.738;19.472;2023-03-21T12:45:56;10.80;;;5.97;;
18411;SDS011;27097;51.738;19.472;2023-03-21T12:48:27;13.25;;;7.97;;
18411;SDS011;27097;51.738;19.472;2023-03-21T12:51:01;12.27;;;7.82;;
18411;SDS011;27097;51.738;19.472;2023-03-21T12:53:35;11.15;;;7.45;;
18411;SDS011;27097;51.738;19.472;2023-03-21T12:56:13;11.15;;;7.30;;
18411;SDS011;27097;51.738;19.472;2023-03-21T12:58:46;12.77;;;7.70;;
18411;SDS011;27097;51.738;19.472;2023-03-21T13:01:18;15.20;;;8.07;;
18411;SDS011;27097;51.738;19.472;2023-03-21T13:03:47;14.55;;;7.80;;
18411;SDS011;27097;51.738;19.472;2023-03-21T13:06:21;16.73;;;8.70;;
18411;SDS011;27097;51.738;19.472;2023-03-21T13:08:51;12.38;;;7.88;;
18411;SDS011;27097;51.738;19.472;2023-03-21T13:11:23;11.40;;;7.50;;
18411;SDS011;27097;51.738;19.472;2023-03-21T13:13:54;10.98;;;7.40;;
18411;SDS011;27097;51.738;19.472;2023-03-21T13:16:28;14.13;;;7.97;;
18411;SDS011;27097;51.738;19.472;2023-03-21T13:19:01;11.00;;;7.15;;
18411;SDS011;27097;51.738;19.472;2023-03-21T13:21:39;11.98;;;7.75;;
18411;SDS011;27097;51.738;19.472;2023-03-21T13:24:17;12.32;;;7.60;;
18411;SDS011;27097;51.738;19.472;2023-03-21T13:26:49;9.77;;;7.25;;
18411;SDS011;27097;51.738;19.472;2023-03-21T13:29:22;9.20;;;7.00;;
18411;SDS011;27097;51.738;19.472;2023-03-21T13:31:53;11.35;;;7.68;;
18411;SDS011;27097;51.738;19.472;2023-03-21T13:34:24;12.02;;;7.88;;
18411;SDS011;27097;51.738;19.472;2023-03-21T13:36:51;11.48;;;6.53;;
18411;SDS011;27097;51.738;19.472;2023-03-21T13:39:23;15.55;;;5.70;;
18411;SDS011;27097;51.738;19.472;2023-03-21T13:41:53;11.13;;;5.28;;
18411;SDS011;27097;51.738;19.472;2023-03-21T13:44:26;7.07;;;5.20;;
18411;SDS011;27097;51.738;19.472;2023-03-21T13:47:00;13.95;;;5.00;;
18411;SDS011;27097;51.738;19.472;2023-03-21T13:49:31;7.63;;;4.97;;
18411;SDS011;27097;51.738;19.472;2023-03-21T13:51:59;19.27;;;5.60;;
18411;SDS011;27097;51.738;19.472;2023-03-21T13:54:43;16.08;;;5.85;;
18411;SDS011;27097;51.738;19.472;2023-03-21T14:00:17;17.02;;;4.90;;
18411;SDS011;27097;51.738;19.472;2023-03-21T14:02:57;14.75;;;4.68;;
18411;SDS011;27097;51.738;19.472;2023-03-21T14:05:27;12.82;;;4.82;;
18411;SDS011;27097;51.738;19.472;2023-03-21T14:07:54;30.08;;;5.22;;
18411;SDS011;27097;51.738;19.472;2023-03-21T14:10:27;14.13;;;4.68;;
18411;SDS011;27097;51.738;19.472;2023-03-21T14:12:58;15.50;;;5.40;;
18411;SDS011;27097;51.738;19.472;2023-03-21T14:15:26;12.98;;;4.75;;
18411;SDS011;27097;51.738;19.472;2023-03-21T14:17:59;11.52;;;5.10;;
18411;SDS011;27097;51.738;19.472;2023-03-21T14:20:29;13.45;;;5.05;;
18411;SDS011;27097;51.738;19.472;2023-03-21T14:22:57;16.15;;;4.72;;
18411;SDS011;27097;51.738;19.472;2023-03-21T14:25:31;12.98;;;5.20;;
18411;SDS011;27097;51.738;19.472;2023-03-21T14:28:00;12.25;;;4.85;;
18411;SDS011;27097;51.738;19.472;2023-03-21T14:30:31;14.48;;;5.10;;
18411;SDS011;27097;51.738;19.472;2023-03-21T14:33:05;9.45;;;4.80;;
18411;SDS011;27097;51.738;19.472;2023-03-21T14:35:54;11.32;;;4.55;;
18411;SDS011;27097;51.738;19.472;2023-03-21T14:38:23;12.52;;;5.03;;
18411;SDS011;27097;51.738;19.472;2023-03-21T14:40:53;14.57;;;5.03;;
18411;SDS011;27097;51.738;19.472;2023-03-21T14:43:21;16.08;;;4.90;;
18411;SDS011;27097;51.738;19.472;2023-03-21T14:45:49;16.80;;;5.10;;
18411;SDS011;27097;51.738;19.472;2023-03-21T14:48:27;13.38;;;4.82;;
18411;SDS011;27097;51.738;19.472;2023-03-21T14:50:56;12.57;;;4.70;;